Time;durP1;ratioP1;P1;durP2;ratioP2;P2;SDS_P1;SDS_P2;PMS_P1;PMS_P2;Temp;Humidity;BMP_temperature;BMP_pressure;BME280_temperature;BME280_humidity;BME280_pressure;Samples;Min_cycle;Max_cycle;Signal;HPM_P1;HPM_P2
2022/07/09 00:00:00;;;;;;;10.35;3.65;;;;;;;15.63;77.89;100554.09;5114545;28;20032;-58
2022/07/09 00:02:25;;;;;;;9.18;3.83;;;;;;;15.64;77.61;100551.13;5100573;28;20039;-58
2022/07/09 00:04:51;;;;;;;9.13;4.35;;;;;;;15.51;77.92;100552.28;5097336;28;20493;-57
2022/07/09 00:07:16;;;;;;;12.52;3.80;;;;;;;15.53;78.33;100554.75;5104806;28;20028;-57
2022/07/09 00:09:42;;;;;;;9.77;3.85;;;;;;;15.50;78.27;100552.50;5103234;28;20043;-57
2022/07/09 00:12:08;;;;;;;9.20;3.75;;;;;;;15.28;79.49;100547.81;5103401;28;20023;-57
2022/07/09 00:14:34;;;;;;;7.45;4.05;;;;;;;15.26;79.51;100552.63;5094210;27;20146;-57
2022/07/09 00:16:59;;;;;;;8.73;3.90;;;;;;;15.40;79.23;100550.47;5103343;28;20032;-57
2022/07/09 00:19:25;;;;;;;12.93;4.85;;;;;;;15.44;79.06;100545.38;5097961;28;20035;-57
2022/07/09 00:21:50;;;;;;;9.27;3.90;;;;;;;15.45;78.31;100547.84;5103375;28;20043;-57
2022/07/09 00:24:15;;;;;;;9.27;4.07;;;;;;;15.37;78.96;100539.31;5099869;28;20091;-57
2022/07/09 00:26:41;;;;;;;12.50;4.38;;;;;;;15.36;79.17;100538.50;5101191;28;20020;-58
2022/07/09 00:29:06;;;;;;;8.80;4.18;;;;;;;15.36;78.79;100545.78;5101897;28;20683;-58
2022/07/09 00:31:32;;;;;;;9.32;4.22;;;;;;;15.31;78.69;100531.09;5100002;28;20020;-58
2022/07/09 00:33:57;;;;;;;10.00;4.20;;;;;;;15.17;79.05;100537.84;5099321;28;20028;-58
2022/07/09 00:36:23;;;;;;;9.85;4.07;;;;;;;15.10;79.46;100539.88;5096220;28;20387;-58
2022/07/09 00:38:48;;;;;;;13.90;4.13;;;;;;;14.95;81.12;100534.16;5098937;28;20028;-57
2022/07/09 00:41:13;;;;;;;6.72;4.07;;;;;;;14.87;81.69;100538.06;5096296;28;20027;-57
2022/07/09 00:43:48;;;;;;;12.77;4.43;;;;;;;14.97;81.33;100534.75;5100569;28;20020;-57
2022/07/09 00:46:14;;;;;;;12.10;4.43;;;;;;;14.96;80.70;100541.22;5098102;28;20172;-57
2022/07/09 00:48:39;;;;;;;8.32;4.22;;;;;;;14.94;80.30;100541.47;5104293;28;20507;-57
2022/07/09 00:51:05;;;;;;;6.88;4.10;;;;;;;14.62;81.97;100538.34;5101201;28;20031;-57
2022/07/09 00:53:30;;;;;;;7.75;4.55;;;;;;;14.36;83.92;100535.06;5093882;28;20121;-56
2022/07/09 00:55:56;;;;;;;7.93;4.25;;;;;;;14.30;83.95;100538.69;5099543;28;20054;-57
2022/07/09 00:58:21;;;;;;;9.48;5.13;;;;;;;14.14;85.14;100534.03;5096284;28;20032;-57
2022/07/09 01:00:47;;;;;;;11.30;5.07;;;;;;;14.14;85.22;100532.16;5100350;28;20027;-56
2022/07/09 01:03:12;;;;;;;8.80;4.70;;;;;;;14.13;85.24;100529.69;5112623;27;20028;-57
2022/07/09 01:05:39;;;;;;;7.80;4.90;;;;;;;14.09;85.30;100528.50;5123087;27;20035;-57
2022/07/09 01:08:05;;;;;;;10.75;5.20;;;;;;;13.97;85.85;100525.81;5126594;27;20063;-57
2022/07/09 01:10:31;;;;;;;10.38;5.30;;;;;;;14.02;86.00;100521.34;5115706;27;20470;-57
2022/07/09 01:12:56;;;;;;;10.55;4.97;;;;;;;14.22;85.74;100522.88;5101784;28;20080;-57
2022/07/09 01:15:22;;;;;;;10.13;4.78;;;;;;;14.30;84.90;100519.81;5117979;27;20019;-57
2022/07/09 01:17:47;;;;;;;10.20;5.15;;;;;;;14.40;83.71;100525.47;5120509;27;20467;-57
2022/07/09 01:20:13;;;;;;;8.05;4.20;;;;;;;14.26;83.99;100523.25;5121179;27;20019;-57
2022/07/09 01:22:40;;;;;;;9.80;4.60;;;;;;;14.30;84.60;100519.81;5112216;27;20030;-57
2022/07/09 01:25:09;;;;;;;8.73;4.50;;;;;;;14.41;84.10;100527.09;5118996;27;20027;-56
2022/07/09 01:27:37;;;;;;;8.88;4.30;;;;;;;14.34;83.43;100521.00;5101914;27;20027;-57
2022/07/09 01:30:03;;;;;;;11.73;4.03;;;;;;;14.27;83.47;100514.91;5119382;27;20118;-57
2022/07/09 01:32:29;;;;;;;8.38;4.35;;;;;;;14.17;84.42;100514.69;5116360;27;20051;-57
2022/07/09 01:34:54;;;;;;;8.88;4.50;;;;;;;14.18;85.28;100517.16;5118777;27;20032;-58
2022/07/09 01:37:20;;;;;;;5.97;4.18;;;;;;;14.07;83.27;100514.44;5119412;27;20079;-58
2022/07/09 01:39:51;;;;;;;14.90;4.45;;;;;;;13.95;84.22;100512.56;5123299;27;20647;-58
2022/07/09 01:42:17;;;;;;;8.38;4.78;;;;;;;13.88;85.98;100506.47;5119086;27;20031;-57
2022/07/09 01:44:44;;;;;;;9.77;4.75;;;;;;;14.00;86.22;100503.75;5121038;27;20084;-58
2022/07/09 01:47:09;;;;;;;7.88;4.97;;;;;;;13.91;86.03;100495.22;5119150;27;20023;-58
2022/07/09 01:49:35;;;;;;;8.55;4.20;;;;;;;13.87;85.30;100493.22;5116292;27;20481;-57
2022/07/09 01:52:00;;;;;;;9.57;5.15;;;;;;;13.84;86.46;100489.13;5115042;27;20032;-57
2022/07/09 01:54:25;;;;;;;7.43;4.40;;;;;;;13.91;86.12;100489.03;5121986;27;20384;-57
2022/07/09 01:56:51;;;;;;;8.63;4.68;;;;;;;13.91;85.87;100484.44;5116924;27;20019;-57
2022/07/09 01:59:16;;;;;;;6.80;4.30;;;;;;;13.68;85.97;100484.41;5080271;28;20023;-56
2022/07/09 02:01:42;;;;;;;8.18;4.55;;;;;;;13.64;86.35;100484.06;5116791;27;20063;-58
2022/07/09 02:04:07;;;;;;;11.95;5.80;;;;;;;13.63;88.53;100486.97;5120115;27;20031;-57
2022/07/09 02:06:33;;;;;;;9.73;4.55;;;;;;;13.67;86.74;100482.78;5119544;27;20039;-58
2022/07/09 02:08:58;;;;;;;9.00;4.65;;;;;;;13.67;87.14;100482.78;5116348;27;20234;-56
2022/07/09 02:11:24;;;;;;;7.45;5.00;;;;;;;13.67;87.24;100475.50;5098768;28;20121;-56
2022/07/09 02:13:49;;;;;;;9.00;5.05;;;;;;;13.62;86.75;100472.69;5118709;27;20023;-57
2022/07/09 02:16:14;;;;;;;9.32;5.47;;;;;;;13.46;87.72;100463.41;5111359;27;20488;-57
2022/07/09 02:18:40;;;;;;;13.05;4.82;;;;;;;13.44;86.97;100473.59;5120830;27;20019;-57
2022/07/09 02:21:07;;;;;;;11.38;5.95;;;;;;;13.47;88.29;100466.94;5101477;27;20084;-57
2022/07/09 02:23:32;;;;;;;10.32;5.53;;;;;;;13.33;89.80;100467.16;5115983;27;20111;-57
2022/07/09 02:25:57;;;;;;;12.05;6.10;;;;;;;13.30;90.12;100466.75;5121635;27;20019;-57
2022/07/09 02:28:23;;;;;;;11.57;6.15;;;;;;;13.41;89.59;100465.16;5095576;27;20035;-57
2022/07/09 02:30:48;;;;;;;10.25;5.80;;;;;;;13.43;89.71;100471.97;5099974;27;20378;-57
2022/07/09 02:33:14;;;;;;;10.07;5.68;;;;;;;13.45;89.62;100469.84;5117299;27;20023;-56
2022/07/09 02:35:39;;;;;;;13.15;6.72;;;;;;;13.41;90.11;100465.97;5097176;28;20040;-57
2022/07/09 02:38:05;;;;;;;10.82;6.40;;;;;;;13.38;89.80;100461.88;5125759;27;20056;-57
2022/07/09 02:40:30;;;;;;;13.65;6.38;;;;;;;13.37;90.26;100456.72;5120029;27;20020;-56
2022/07/09 02:42:55;;;;;;;11.68;6.00;;;;;;;13.48;89.37;100455.94;5117121;27;20435;-56
2022/07/09 02:45:21;;;;;;;13.85;5.70;;;;;;;13.37;89.47;100454.03;5118039;27;20031;-57
2022/07/09 02:47:46;;;;;;;11.55;6.05;;;;;;;13.36;89.96;100444.31;5114066;27;20858;-57
2022/07/09 02:50:12;;;;;;;12.52;5.90;;;;;;;13.37;89.94;100451.34;5117342;27;20031;-57
2022/07/09 02:52:37;;;;;;;7.88;5.55;;;;;;;13.39;89.04;100449.22;5100626;27;20026;-57
2022/07/09 02:55:02;;;;;;;13.48;5.90;;;;;;;13.27;88.92;100451.06;5096763;27;20024;-57
2022/07/09 02:57:28;;;;;;;11.70;5.65;;;;;;;13.09;89.73;100449.25;5125617;27;20398;-57
2022/07/09 02:59:53;;;;;;;9.70;5.32;;;;;;;12.98;90.78;100458.94;5119471;27;20068;-57
2022/07/09 03:02:19;;;;;;;11.13;5.93;;;;;;;13.00;91.71;100464.06;5119375;27;20080;-57
2022/07/09 03:04:44;;;;;;;7.80;5.00;;;;;;;12.99;91.25;100455.16;5116692;27;20059;-57
2022/07/09 03:07:09;;;;;;;9.15;5.55;;;;;;;13.12;90.42;100459.53;5116077;27;20098;-57
2022/07/09 03:09:35;;;;;;;8.10;5.25;;;;;;;13.19;90.34;100456.75;5116283;28;20489;-57
2022/07/09 03:12:00;;;;;;;9.57;5.90;;;;;;;13.21;90.72;100460.88;5117814;27;20019;-57
2022/07/09 03:14:27;;;;;;;6.95;4.95;;;;;;;13.28;89.69;100458.09;5112699;27;20027;-57
2022/07/09 03:16:52;;;;;;;8.73;5.90;;;;;;;13.22;89.93;100454.41;5102854;28;20027;-57
2022/07/09 03:19:19;;;;;;;11.13;6.15;;;;;;;13.22;89.75;100448.22;5116740;28;20031;-57
2022/07/09 03:21:44;;;;;;;11.85;5.85;;;;;;;13.15;90.56;100448.31;5096838;28;20280;-57
2022/07/09 03:24:09;;;;;;;8.60;5.28;;;;;;;13.12;89.86;100448.78;5113200;28;20028;-57
2022/07/09 03:26:35;;;;;;;10.57;5.53;;;;;;;13.04;89.58;100446.41;5120149;28;20027;-57
2022/07/09 03:29:00;;;;;;;8.10;5.60;;;;;;;13.15;90.91;100446.47;5122645;28;20331;-57
2022/07/09 03:31:26;;;;;;;8.45;6.10;;;;;;;13.10;89.66;100442.78;5120907;28;20023;-57
2022/07/09 03:33:53;;;;;;;9.45;5.60;;;;;;;13.05;89.01;100446.16;5107673;28;20023;-57
2022/07/09 03:36:19;;;;;;;10.82;5.35;;;;;;;13.13;89.84;100445.06;5123481;27;20135;-57
2022/07/09 03:38:44;;;;;;;8.85;5.28;;;;;;;13.19;89.30;100441.44;5106186;28;20032;-57
2022/07/09 03:41:09;;;;;;;9.75;5.07;;;;;;;13.12;89.48;100446.91;5122610;27;20089;-57
2022/07/09 03:43:35;;;;;;;11.60;5.40;;;;;;;13.31;88.84;100449.56;5119160;27;20662;-57
2022/07/09 03:46:00;;;;;;;8.50;5.30;;;;;;;13.49;87.48;100444.09;5120709;27;20385;-57
2022/07/09 03:48:26;;;;;;;8.73;5.00;;;;;;;13.67;86.78;100439.66;5086722;27;20589;-57
2022/07/09 03:50:51;;;;;;;8.90;4.57;;;;;;;14.13;85.81;100446.13;5124965;27;20354;-57
2022/07/09 03:53:16;;;;;;;8.68;5.10;;;;;;;14.45;81.51;100450.06;5104738;27;20056;-57
2022/07/09 03:55:42;;;;;;;10.68;4.80;;;;;;;14.91;80.47;100452.88;5119547;27;20389;-57
2022/07/09 03:58:07;;;;;;;7.18;3.80;;;;;;;15.39;76.36;100448.84;5109265;27;20023;-57
2022/07/09 04:00:33;;;;;;;9.50;4.50;;;;;;;15.88;75.55;100451.00;5121082;27;20030;-57
2022/07/09 04:02:58;;;;;;;6.00;4.10;;;;;;;16.37;73.60;100451.13;5120562;27;20464;-57
2022/07/09 04:05:24;;;;;;;7.13;3.72;;;;;;;16.50;72.44;100448.06;5120713;27;20031;-58
2022/07/09 04:07:49;;;;;;;8.18;3.58;;;;;;;16.56;71.96;100448.94;5122292;27;20134;-58
2022/07/09 04:10:15;;;;;;;7.88;3.55;;;;;;;17.07;70.43;100454.94;5120918;27;20015;-58
2022/07/09 04:12:40;;;;;;;6.45;3.30;;;;;;;17.24;68.67;100465.69;5114681;27;20020;-58
2022/07/09 04:15:06;;;;;;;7.25;3.60;;;;;;;17.09;70.19;100457.41;5124119;27;20447;-58
2022/07/09 04:17:31;;;;;;;6.72;3.25;;;;;;;16.13;74.60;100454.09;5116009;27;20027;-58
2022/07/09 04:19:57;;;;;;;8.57;3.60;;;;;;;16.71;72.63;100456.44;5120345;27;20031;-58
2022/07/09 04:22:22;;;;;;;6.82;3.53;;;;;;;15.54;78.63;100453.69;5116260;27;20026;-58
2022/07/09 04:24:47;;;;;;;8.48;3.95;;;;;;;15.82;79.10;100454.69;5122296;27;20254;-58
2022/07/09 04:27:13;;;;;;;5.65;3.38;;;;;;;15.60;77.69;100463.53;5123194;27;20031;-57
2022/07/09 04:29:38;;;;;;;8.45;3.55;;;;;;;15.83;75.86;100456.34;5124655;27;20382;-58
2022/07/09 04:32:04;;;;;;;8.93;3.85;;;;;;;15.66;78.57;100451.72;5118418;27;20363;-57
2022/07/09 04:34:29;;;;;;;7.63;3.35;;;;;;;15.67;77.55;100453.34;5117099;27;20118;-57
2022/07/09 04:36:55;;;;;;;7.38;3.45;;;;;;;16.77;74.61;100450.84;5120697;27;20536;-57
2022/07/09 04:39:22;;;;;;;8.98;3.85;;;;;;;16.12;76.17;100446.19;5119417;27;20027;-58
2022/07/09 04:41:47;;;;;;;6.57;3.45;;;;;;;18.01;69.55;100447.34;5114893;27;20028;-58
2022/07/09 04:44:15;;;;;;;6.35;3.08;;;;;;;19.35;64.86;100454.91;5115439;27;20019;-58
2022/07/09 04:46:41;;;;;;;6.43;3.05;;;;;;;19.85;62.86;100450.56;5121367;27;20027;-58
2022/07/09 04:49:06;;;;;;;8.20;3.10;;;;;;;21.24;59.84;100457.09;5118043;27;20038;-58
2022/07/09 04:51:32;;;;;;;8.68;2.80;;;;;;;21.64;55.24;100465.22;5103834;27;20015;-57
2022/07/09 04:53:57;;;;;;;5.30;2.53;;;;;;;21.94;54.91;100464.13;5109464;27;20127;-57
2022/07/09 04:56:22;;;;;;;8.18;3.15;;;;;;;19.97;60.25;100461.16;5121343;27;20026;-57
2022/07/09 04:58:54;;;;;;;7.57;3.08;;;;;;;18.20;66.56;100462.13;5118875;27;20031;-57
2022/07/09 05:01:20;;;;;;;10.07;2.95;;;;;;;17.40;70.07;100463.94;5096643;27;20062;-57
2022/07/09 05:03:46;;;;;;;9.63;2.95;;;;;;;16.88;73.09;100457.19;5120265;27;20487;-57
2022/07/09 05:06:14;;;;;;;5.93;3.17;;;;;;;16.53;74.05;100455.69;5116344;27;20054;-57
2022/07/09 05:08:39;;;;;;;8.57;3.40;;;;;;;16.29;75.68;100448.88;5081432;27;20115;-57
2022/07/09 05:11:05;;;;;;;12.63;4.22;;;;;;;15.15;80.63;100439.25;5121629;27;20028;-57
2022/07/09 05:13:30;;;;;;;9.40;3.60;;;;;;;16.20;78.27;100455.78;5098597;27;20023;-57
2022/07/09 05:15:55;;;;;;;9.82;3.88;;;;;;;16.44;76.41;100443.66;5115763;27;20054;-57
2022/07/09 05:18:21;;;;;;;7.55;3.67;;;;;;;16.29;77.33;100454.28;5115862;27;20022;-57
2022/07/09 05:20:46;;;;;;;9.75;3.60;;;;;;;16.17;78.74;100457.94;5118068;27;20473;-57
2022/07/09 05:23:12;;;;;;;6.43;3.95;;;;;;;16.14;78.54;100458.41;5121828;27;20015;-57
2022/07/09 05:25:37;;;;;;;8.63;3.90;;;;;;;16.07;79.06;100457.75;5123761;27;20031;-57
2022/07/09 05:28:03;;;;;;;8.02;3.80;;;;;;;15.76;81.10;100469.22;5098892;28;20458;-57
2022/07/09 05:30:28;;;;;;;9.98;4.20;;;;;;;16.20;79.67;100461.19;5121856;27;20382;-57
2022/07/09 05:32:54;;;;;;;8.20;3.67;;;;;;;16.48;77.99;100463.75;5102554;27;20416;-57
2022/07/09 05:35:19;;;;;;;7.55;3.35;;;;;;;16.64;77.83;100462.03;5104742;27;20027;-56
2022/07/09 05:37:44;;;;;;;7.45;4.30;;;;;;;16.66;76.55;100459.09;5118193;27;20039;-57
2022/07/09 05:40:10;;;;;;;10.13;4.18;;;;;;;16.40;77.68;100453.38;5116263;27;20023;-57
2022/07/09 05:42:36;;;;;;;8.45;3.85;;;;;;;16.54;77.84;100457.31;5121449;27;20022;-56
2022/07/09 05:45:01;;;;;;;8.07;3.58;;;;;;;16.70;77.42;100452.06;5117912;27;20024;-57
2022/07/09 05:47:27;;;;;;;7.95;3.90;;;;;;;17.02;76.06;100458.44;5117376;27;20024;-57
2022/07/09 05:49:52;;;;;;;6.80;4.00;;;;;;;17.08;75.62;100461.19;5119058;27;20034;-57
2022/07/09 05:52:18;;;;;;;7.63;4.05;;;;;;;16.43;78.68;100460.16;5103689;28;20023;-57
2022/07/09 05:54:43;;;;;;;11.25;4.38;;;;;;;16.61;77.47;100457.13;5122279;27;20024;-57
2022/07/09 05:57:09;;;;;;;14.82;4.38;;;;;;;16.82;76.83;100460.91;5119614;27;20027;-57
2022/07/09 05:59:34;;;;;;;8.15;3.97;;;;;;;17.25;75.23;100468.16;5115128;27;20024;-57
2022/07/09 06:02:02;;;;;;;12.15;5.18;;;;;;;16.70;76.88;100468.31;5119693;27;20039;-57
2022/07/09 06:04:28;;;;;;;10.63;3.88;;;;;;;17.18;75.39;100464.00;5125656;27;20027;-57
2022/07/09 06:06:53;;;;;;;7.35;3.83;;;;;;;17.10;77.21;100472.56;5098765;27;20028;-57
2022/07/09 06:09:19;;;;;;;11.45;3.63;;;;;;;16.89;78.49;100472.38;5117693;27;20027;-57
2022/07/09 06:11:44;;;;;;;8.15;3.72;;;;;;;16.76;78.91;100475.44;5115519;27;20027;-56
2022/07/09 06:14:10;;;;;;;8.88;3.58;;;;;;;16.98;77.34;100472.75;5115455;27;20023;-57
2022/07/09 06:16:35;;;;;;;6.80;3.65;;;;;;;17.01;77.50;100478.47;5121921;27;20023;-57
2022/07/09 06:19:00;;;;;;;8.50;3.90;;;;;;;16.79;78.93;100486.59;5120980;27;20453;-57
2022/07/09 06:21:26;;;;;;;7.50;4.45;;;;;;;16.77;78.13;100483.31;5114146;27;20509;-57
2022/07/09 06:23:51;;;;;;;8.52;4.03;;;;;;;17.11;76.49;100480.47;5122339;27;20046;-57
2022/07/09 06:26:17;;;;;;;6.63;4.05;;;;;;;17.28;76.09;100477.66;5120722;27;20461;-58
2022/07/09 06:28:42;;;;;;;11.85;4.55;;;;;;;17.19;76.35;100476.47;5100585;27;20401;-57
2022/07/09 06:31:08;;;;;;;6.03;4.20;;;;;;;17.15;75.82;100478.06;5112218;27;20034;-57
2022/07/09 06:33:33;;;;;;;7.22;4.32;;;;;;;17.11;76.90;100471.53;5122074;27;20027;-57
2022/07/09 06:35:59;;;;;;;6.45;4.30;;;;;;;17.24;76.49;100476.53;5098998;27;20031;-57
2022/07/09 06:38:27;;;;;;;8.30;3.88;;;;;;;17.64;75.10;100478.78;5117725;27;20015;-57
2022/07/09 06:40:54;;;;;;;7.60;4.20;;;;;;;18.03;73.60;100480.44;5118758;27;20015;-57
2022/07/09 06:43:19;;;;;;;8.20;4.38;;;;;;;18.09;73.33;100473.97;5119831;27;20023;-57
2022/07/09 06:45:45;;;;;;;9.30;3.95;;;;;;;18.56;71.45;100475.84;5083791;27;20039;-57
2022/07/09 06:48:10;;;;;;;8.95;4.22;;;;;;;18.80;71.33;100473.53;5117025;27;20022;-57
2022/07/09 06:50:35;;;;;;;8.07;3.60;;;;;;;19.61;68.54;100472.84;5117517;27;20038;-57
2022/07/09 06:53:01;;;;;;;7.38;4.03;;;;;;;18.89;69.74;100471.09;5097693;28;20046;-57
2022/07/09 06:55:26;;;;;;;6.88;4.00;;;;;;;19.65;67.12;100473.13;5098136;28;20031;-56
2022/07/09 06:57:52;;;;;;;7.82;4.25;;;;;;;19.65;67.17;100473.13;5117354;27;20041;-56
2022/07/09 07:00:17;;;;;;;13.77;3.88;;;;;;;19.70;66.15;100467.72;5111496;27;20039;-57
2022/07/09 07:02:43;;;;;;;11.43;4.32;;;;;;;20.43;63.62;100464.56;5124958;27;20051;-57
2022/07/09 07:05:08;;;;;;;7.35;4.32;;;;;;;21.34;59.63;100469.81;5119465;27;20023;-57
2022/07/09 07:07:34;;;;;;;10.88;4.68;;;;;;;19.58;64.80;100464.41;5116556;27;20023;-56
2022/07/09 07:09:59;;;;;;;8.45;3.88;;;;;;;22.49;57.79;100481.06;5115983;27;20036;-56
2022/07/09 07:12:25;;;;;;;7.95;3.70;;;;;;;26.09;47.57;100475.88;5116733;28;20423;-56
2022/07/09 07:14:50;;;;;;;8.13;3.92;;;;;;;27.26;44.53;100468.91;5114458;27;20027;-57
2022/07/09 07:17:16;;;;;;;10.90;4.45;;;;;;;27.52;43.46;100477.94;5115578;28;20069;-56
2022/07/09 07:19:41;;;;;;;11.20;4.18;;;;;;;27.26;43.24;100479.91;5100389;28;20537;-56
2022/07/09 07:22:07;;;;;;;12.60;4.10;;;;;;;28.32;41.59;100476.59;5115221;28;20027;-56
2022/07/09 07:24:32;;;;;;;10.80;4.20;;;;;;;27.98;42.02;100470.06;5115544;28;20031;-56
2022/07/09 07:26:58;;;;;;;10.60;3.83;;;;;;;29.23;39.67;100474.25;5119181;28;20485;-57
2022/07/09 07:29:24;;;;;;;14.48;4.32;;;;;;;28.66;40.87;100469.31;5116621;28;20031;-57
2022/07/09 07:31:49;;;;;;;8.50;4.00;;;;;;;28.82;39.59;100464.81;5099335;28;20054;-57
2022/07/09 07:34:15;;;;;;;10.63;4.07;;;;;;;28.53;39.79;100471.97;5118331;28;20476;-57
2022/07/09 07:36:40;;;;;;;8.07;3.88;;;;;;;29.27;39.03;100474.38;5115176;28;20027;-57
2022/07/09 07:39:06;;;;;;;11.13;4.18;;;;;;;29.77;38.07;100471.47;5117385;28;20028;-57
2022/07/09 07:41:31;;;;;;;11.63;4.35;;;;;;;30.30;37.03;100469.75;5119619;28;20030;-57
2022/07/09 07:43:56;;;;;;;13.10;4.28;;;;;;;31.27;35.09;100471.88;5115002;28;20030;-57
2022/07/09 07:46:22;;;;;;;11.13;4.57;;;;;;;29.59;37.53;100468.06;5119165;28;20480;-57
2022/07/09 07:48:47;;;;;;;16.38;5.00;;;;;;;25.80;43.95;100463.41;5115186;28;20020;-57
2022/07/09 07:51:13;;;;;;;9.85;4.97;;;;;;;25.83;45.32;100462.78;5102661;28;20024;-56
2022/07/09 07:53:38;;;;;;;16.35;5.30;;;;;;;27.15;42.97;100462.88;5117945;28;20076;-56
2022/07/09 07:56:04;;;;;;;11.93;4.40;;;;;;;28.40;40.79;100453.66;5107360;28;20027;-57
2022/07/09 07:58:30;;;;;;;10.90;4.47;;;;;;;27.12;43.09;100460.78;5116429;28;20045;-56
2022/07/09 08:00:55;;;;;;;14.90;4.97;;;;;;;25.63;46.14;100453.13;5116876;28;20027;-56
2022/07/09 08:03:21;;;;;;;10.38;5.13;;;;;;;22.74;53.21;100459.97;5093180;28;20040;-57
2022/07/09 08:05:46;;;;;;;11.43;4.63;;;;;;;23.82;51.32;100457.25;5094638;28;20537;-56
2022/07/09 08:08:12;;;;;;;14.57;4.70;;;;;;;22.82;53.90;100453.88;5090431;28;20035;-57
2022/07/09 08:10:38;;;;;;;17.73;5.43;;;;;;;24.17;50.98;100457.72;5093345;28;20020;-56
2022/07/09 08:13:03;;;;;;;14.65;5.75;;;;;;;27.01;44.99;100459.47;5093196;28;20054;-57
2022/07/09 08:15:29;;;;;;;19.65;5.25;;;;;;;26.70;43.64;100452.16;5096318;28;20028;-56
2022/07/09 08:17:54;;;;;;;11.82;4.40;;;;;;;27.93;42.58;100456.47;5096865;28;20032;-57
2022/07/09 08:20:19;;;;;;;12.35;4.68;;;;;;;27.83;41.76;100456.84;5094556;28;20036;-57
2022/07/09 08:22:45;;;;;;;13.02;4.35;;;;;;;29.10;39.39;100445.78;5095542;28;20035;-56
2022/07/09 08:25:11;;;;;;;10.77;4.40;;;;;;;26.01;45.26;100459.03;5098419;28;20031;-56
2022/07/09 08:27:36;;;;;;;15.18;4.32;;;;;;;28.13;41.75;100453.00;5100542;28;20693;-56
2022/07/09 08:30:01;;;;;;;14.45;3.72;;;;;;;28.67;40.73;100449.66;5100132;28;20024;-56
2022/07/09 08:32:28;;;;;;;8.57;4.28;;;;;;;27.19;44.12;100447.38;5103452;28;20027;-57
2022/07/09 08:34:54;;;;;;;9.48;3.28;;;;;;;26.75;43.15;100451.19;5098476;28;20526;-56
2022/07/09 08:37:19;;;;;;;10.82;3.33;;;;;;;26.59;43.90;100439.84;5106315;28;20028;-56
2022/07/09 08:39:45;;;;;;;9.60;3.70;;;;;;;25.63;46.39;100441.34;5107216;28;20034;-56
2022/07/09 08:42:10;;;;;;;11.82;3.58;;;;;;;28.38;40.62;100440.25;5093093;28;20036;-55
2022/07/09 08:44:38;;;;;;;7.60;2.78;;;;;;;27.84;40.75;100436.44;5101505;28;20319;-56
2022/07/09 08:47:04;;;;;;;6.10;2.60;;;;;;;25.59;45.45;100441.19;5103948;28;20423;-55
2022/07/09 08:49:29;;;;;;;6.85;2.90;;;;;;;24.13;48.36;100439.44;5097521;28;20527;-57
2022/07/09 08:51:55;;;;;;;7.68;3.08;;;;;;;23.98;48.80;100435.06;5087095;28;20031;-57
2022/07/09 08:54:20;;;;;;;8.15;3.10;;;;;;;26.64;43.57;100436.97;5098521;28;20539;-58
2022/07/09 08:56:46;;;;;;;7.97;3.00;;;;;;;27.66;40.30;100435.66;5105221;28;20470;-57
2022/07/09 08:59:11;;;;;;;10.10;3.38;;;;;;;25.06;45.05;100434.47;5095441;28;20462;-57
2022/07/09 09:01:36;;;;;;;8.02;3.70;;;;;;;25.91;45.12;100439.25;5102908;27;20027;-57
2022/07/09 09:04:02;;;;;;;7.78;3.28;;;;;;;26.63;43.16;100430.66;5116139;27;20076;-57
2022/07/09 09:06:27;;;;;;;8.02;3.42;;;;;;;27.89;39.85;100427.97;5102261;27;20050;-57
2022/07/09 09:08:54;;;;;;;7.57;3.08;;;;;;;28.01;39.14;100417.06;5105198;27;20046;-57
2022/07/09 09:11:26;;;;;;;7.50;3.63;;;;;;;26.64;42.69;100420.47;5121332;27;20469;-57
2022/07/09 09:13:53;;;;;;;8.73;3.85;;;;;;;27.85;39.79;100421.50;5120135;27;20031;-57
2022/07/09 09:16:19;;;;;;;9.10;3.10;;;;;;;27.93;40.12;100415.16;5120881;27;20030;-57
2022/07/09 09:18:47;;;;;;;7.78;3.40;;;;;;;28.24;39.28;100419.56;5116515;27;20028;-57
2022/07/09 09:21:12;;;;;;;6.53;3.00;;;;;;;27.80;39.47;100418.91;5108367;28;20023;-57
2022/07/09 09:23:59;;;;;;;7.80;3.22;;;;;;;27.65;39.97;100415.53;5116778;27;20395;-57
2022/07/09 09:26:25;;;;;;;11.10;3.30;;;;;;;26.14;43.77;100413.34;5114184;27;20028;-57
2022/07/09 09:29:01;;;;;;;7.72;2.90;;;;;;;26.00;43.63;100410.72;5126888;27;20035;-55
2022/07/09 09:31:26;;;;;;;9.93;3.40;;;;;;;25.39;45.22;100412.31;5109520;27;20035;-57
2022/07/09 09:33:53;;;;;;;10.13;3.00;;;;;;;28.05;40.12;100401.47;5124381;27;20047;-56
2022/07/09 09:36:32;;;;;;;7.72;2.60;;;;;;;28.38;39.37;100400.81;5119758;27;20382;-57
2022/07/09 09:39:18;;;;;;;;;;;;;;;28.44;39.14;100395.94;5118141;27;20020;-57
2022/07/09 09:41:45;;;;;;;8.38;3.30;;;;;;;27.04;42.71;100403.81;5117798;27;19912;-57
2022/07/09 09:44:12;;;;;;;10.88;3.75;;;;;;;27.56;41.22;100412.03;5117668;27;20106;-57
2022/07/09 09:46:38;;;;;;;6.72;3.38;;;;;;;26.97;42.58;100400.75;5128722;27;20023;-57
2022/07/09 09:49:10;;;;;;;10.35;3.70;;;;;;;27.53;41.01;100398.88;5098816;28;20530;-57
2022/07/09 09:51:38;;;;;;;9.68;5.07;;;;;;;27.87;39.79;100395.25;5116051;27;20137;-57
2022/07/09 09:54:04;;;;;;;6.95;3.83;;;;;;;26.54;42.78;100398.78;5121000;27;20829;-56
2022/07/09 09:56:30;;;;;;;15.05;4.43;;;;;;;26.97;42.13;100398.00;5117515;27;20027;-57
2022/07/09 09:58:56;;;;;;;54.30;23.98;;;;;;;27.46;40.23;100390.34;5120766;27;20041;-57
2022/07/09 10:01:21;;;;;;;31.38;15.15;;;;;;;28.16;40.13;100397.22;5067924;27;20461;-57
2022/07/09 10:03:47;;;;;;;19.98;9.25;;;;;;;27.31;41.38;100384.22;5103894;28;20036;-57
2022/07/09 10:06:12;;;;;;;8.13;4.05;;;;;;;26.02;42.80;100378.25;5102422;28;20027;-57
2022/07/09 10:08:37;;;;;;;10.90;4.40;;;;;;;26.34;43.20;100383.69;5081321;28;20462;-57
2022/07/09 10:11:04;;;;;;;7.75;4.10;;;;;;;25.52;43.77;100392.19;5117177;27;20080;-55
2022/07/09 10:13:29;;;;;;;10.65;4.03;;;;;;;25.18;45.75;100381.81;5110979;27;20019;-54
2022/07/09 10:15:55;;;;;;;7.50;3.20;;;;;;;25.58;44.67;100384.63;5122292;27;20035;-55
2022/07/09 10:18:20;;;;;;;8.95;3.55;;;;;;;25.28;45.59;100369.78;5115678;27;20049;-55
2022/07/09 10:20:46;;;;;;;9.07;3.33;;;;;;;25.84;44.32;100376.53;5121043;27;20023;-55
2022/07/09 10:23:22;;;;;;;8.63;3.50;;;;;;;27.46;41.80;100373.84;5111389;27;20027;-56
2022/07/09 10:25:50;;;;;;;7.90;3.30;;;;;;;28.16;39.87;100369.66;5122620;27;20232;-56
2022/07/09 10:28:19;;;;;;;7.53;3.05;;;;;;;28.06;39.44;100367.28;5115733;27;20030;-54
2022/07/09 10:30:45;;;;;;;6.50;2.75;;;;;;;27.50;39.52;100358.25;5106619;27;20160;-56
2022/07/09 10:33:11;;;;;;;7.97;3.10;;;;;;;27.82;38.82;100356.88;5109935;27;20035;-54
2022/07/09 10:35:43;;;;;;;6.25;2.80;;;;;;;25.97;41.71;100353.66;5097203;28;20638;-55
2022/07/09 10:38:08;;;;;;;10.68;3.38;;;;;;;26.69;41.61;100343.31;5105437;27;20027;-55
2022/07/09 10:40:42;;;;;;;7.88;3.10;;;;;;;25.93;42.48;100352.69;5114691;27;20032;-55
2022/07/09 10:43:07;;;;;;;5.90;2.92;;;;;;;26.74;41.42;100343.16;5113000;27;20034;-56
2022/07/09 10:45:39;;;;;;;9.07;3.30;;;;;;;28.40;39.21;100344.19;5116404;27;20019;-56
2022/07/09 10:48:06;;;;;;;8.48;3.22;;;;;;;27.79;38.99;100334.66;5117183;27;20032;-56
2022/07/09 10:50:32;;;;;;;7.70;3.10;;;;;;;27.18;41.14;100340.34;5117356;27;20560;-55
2022/07/09 10:52:59;;;;;;;7.53;3.00;;;;;;;27.31;39.53;100333.88;5120320;27;20062;-56
2022/07/09 10:55:26;;;;;;;4.60;2.80;;;;;;;26.85;40.79;100333.41;5117476;27;20031;-55
2022/07/09 10:57:52;;;;;;;9.70;3.00;;;;;;;27.01;40.52;100335.66;5113327;27;20473;-56
2022/07/09 11:00:19;;;;;;;8.25;3.00;;;;;;;27.34;38.89;100335.16;5099639;27;20028;-55
2022/07/09 11:02:56;;;;;;;6.22;2.70;;;;;;;27.35;37.48;100334.81;5116454;27;20044;-55
2022/07/09 11:05:26;;;;;;;7.05;2.60;;;;;;;28.79;36.75;100319.28;5113435;27;20032;-55
2022/07/09 11:08:09;;;;;;;5.07;2.65;;;;;;;29.34;36.11;100318.09;5115608;27;20020;-56
2022/07/09 11:10:36;;;;;;;6.28;2.70;;;;;;;29.13;36.33;100322.84;5118210;27;20027;-55
2022/07/09 11:13:02;;;;;;;4.72;2.42;;;;;;;29.73;35.36;100326.91;5120786;27;21687;-55
2022/07/09 11:15:29;;;;;;;7.47;2.70;;;;;;;28.58;37.14;100316.53;5113051;27;20102;-55